Deadhorse Airport Deadhorse US
ICAO: PASC
IATA:
Category: Medium
Scheduled Services:

Elevation: 65 ft
TransAlt. 18000 ft.

Airport Communications:
ATIS:118.4
ANCHORAGE CNTR:134.4
CTAF:123.6
RDO:122.2
UNICOM:123

PASC Zoom In..

If you have problems with the map follow the link
https://www.worldairports.se/pages/airport.php?
ICAO=PASC

Runways:

(A) RW 05 length 6500 ft width 150 ft
ILS 109.30 / hdg 52

(B) RW 06 length 6500 ft width 100 ft
---- / hdg 52

(C) RW 23 length 6500 ft width 150 ft
---- / hdg 232

(D) RW 24 length 6500 ft width 100 ft
---- / hdg 232

Location; PASC
Day. 23 / Time. 18.53 Zulu
* Altimeter: 29.77
* Temperature: -12° c. -10.4°f.
* Wind from: 000° Speed 00 kn.
Dewpoint: -14° c.
Visibility: 1 Statute Miles.
Clouds: Broken 300 ft.
Conditions: Mist.

PASC 231853Z 00000KT 1SM R06/4000V4500FT BR BKN003 M12/M14 A2977 RMK AO2 SLP082 T11221139 $


Wind - Calm.

 
 
jpsmedia.com for Web Design worldairports.se 2018   terms of use